createdAt,value
2023-02-03T00:00:16.847Z,6.65
2023-02-03T00:02:51.947Z,7.30
2023-02-03T00:05:27.956Z,6.78
2023-02-03T00:08:02.694Z,6.50
2023-02-03T00:10:35.669Z,7.40
2023-02-03T00:13:09.500Z,7.05
2023-02-03T00:15:45.138Z,7.40
2023-02-03T00:18:19.672Z,7.45
2023-02-03T00:20:50.434Z,7.35
2023-02-03T00:23:23.421Z,6.95
2023-02-03T00:25:54.344Z,7.38
2023-02-03T00:28:29.076Z,7.38
2023-02-03T00:31:04.471Z,7.18
2023-02-03T00:33:42.913Z,7.60
2023-02-03T00:36:18.873Z,7.60
2023-02-03T00:38:50.212Z,7.40
2023-02-03T00:41:21.689Z,7.53
2023-02-03T00:43:55.390Z,7.43
2023-02-03T00:46:31.239Z,8.30
2023-02-03T00:49:04.883Z,7.60
2023-02-03T00:51:38.378Z,7.57
2023-02-03T00:54:12.092Z,7.82
2023-02-03T00:56:50.218Z,8.63
2023-02-03T00:59:20.297Z,8.00
2023-02-03T01:01:59.143Z,8.60
2023-02-03T01:04:34.491Z,8.02
2023-02-03T01:07:13.126Z,8.13
2023-02-03T01:09:49.706Z,7.90
2023-02-03T01:12:20.994Z,8.70
2023-02-03T01:14:54.602Z,8.57
2023-02-03T01:17:30.090Z,8.52
2023-02-03T01:20:01.919Z,8.13
2023-02-03T01:22:40.591Z,8.90
2023-02-03T01:25:14.049Z,8.30
2023-02-03T01:27:42.263Z,8.77
2023-02-03T01:30:18.581Z,8.45
2023-02-03T01:32:53.496Z,8.68
2023-02-03T01:35:27.128Z,9.10
2023-02-03T01:37:59.522Z,9.05
2023-02-03T01:40:38.022Z,8.30
2023-02-03T01:43:13.231Z,8.98
2023-02-03T01:45:46.467Z,8.60
2023-02-03T01:48:26.297Z,8.20
2023-02-03T01:51:03.324Z,9.05
2023-02-03T01:53:37.723Z,8.90
2023-02-03T01:56:11.822Z,8.55
2023-02-03T01:58:45.792Z,8.48
2023-02-03T02:01:25.307Z,8.60
2023-02-03T02:04:01.254Z,8.65
2023-02-03T02:06:35.502Z,9.20
2023-02-03T02:09:09.059Z,8.38
2023-02-03T02:11:47.466Z,8.85
2023-02-03T02:14:25.927Z,8.60
2023-02-03T02:17:05.204Z,8.75
2023-02-03T02:20:14.332Z,8.30
2023-02-03T02:23:18.113Z,8.70
2023-02-03T02:26:03.935Z,9.00
2023-02-03T02:29:07.563Z,8.85
2023-02-03T02:31:56.630Z,9.00
2023-02-03T02:34:48.849Z,8.50
2023-02-03T02:38:07.177Z,8.63
2023-02-03T02:41:22.511Z,9.15
2023-02-03T02:44:08.360Z,8.63
2023-02-03T02:46:52.471Z,8.95
2023-02-03T02:49:28.168Z,8.82
2023-02-03T02:52:05.492Z,8.82
2023-02-03T02:54:44.005Z,8.57
2023-02-03T02:57:15.379Z,9.50
2023-02-03T02:59:50.377Z,9.13
2023-02-03T03:02:35.026Z,9.38
2023-02-03T03:05:11.485Z,9.68
2023-02-03T03:07:59.245Z,9.38
2023-02-03T03:10:43.065Z,9.05
2023-02-03T03:13:28.819Z,8.98
2023-02-03T03:16:11.240Z,8.68
2023-02-03T03:18:56.599Z,8.73
2023-02-03T03:21:41.372Z,9.05
2023-02-03T03:24:18.645Z,8.50
2023-02-03T03:27:05.462Z,8.98
2023-02-03T03:29:46.007Z,9.40
2023-02-03T03:32:14.628Z,9.75
2023-02-03T03:34:55.330Z,9.52
2023-02-03T03:37:38.033Z,9.40
2023-02-03T03:40:31.847Z,9.57
2023-02-03T03:43:27.958Z,9.57
2023-02-03T03:46:09.636Z,8.70
2023-02-03T03:48:58.642Z,9.07
2023-02-03T03:51:34.714Z,10.20
2023-02-03T03:54:12.654Z,9.52
2023-02-03T03:57:06.451Z,9.02
2023-02-03T03:59:44.476Z,9.70
2023-02-03T04:02:17.130Z,9.48
2023-02-03T04:04:56.194Z,9.25
2023-02-03T04:07:47.280Z,9.10
2023-02-03T04:10:20.316Z,9.50
2023-02-03T04:12:59.150Z,9.38
2023-02-03T04:15:30.660Z,9.80
2023-02-03T04:18:08.379Z,9.50
2023-02-03T04:20:43.937Z,9.80
2023-02-03T04:23:17.332Z,9.00
2023-02-03T04:25:50.460Z,9.55
2023-02-03T04:28:23.384Z,9.13
2023-02-03T04:31:00.123Z,9.30
2023-02-03T04:36:11.162Z,9.75
2023-02-03T04:38:42.329Z,9.68
2023-02-03T04:41:15.677Z,9.38
2023-02-03T04:43:46.161Z,9.52
2023-02-03T04:46:22.395Z,9.63
2023-02-03T04:48:52.820Z,9.77
2023-02-03T04:51:30.133Z,8.73
2023-02-03T04:54:11.531Z,9.25
2023-02-03T04:56:45.511Z,10.05
2023-02-03T04:59:27.017Z,9.52
2023-02-03T05:01:58.530Z,8.93
2023-02-03T05:04:32.458Z,9.32
2023-02-03T05:07:00.476Z,9.35
2023-02-03T05:09:37.089Z,10.02
2023-02-03T05:12:13.126Z,8.93
2023-02-03T05:14:50.886Z,8.95
2023-02-03T05:17:26.733Z,9.73
2023-02-03T05:19:59.527Z,9.35
2023-02-03T05:22:30.593Z,9.47
2023-02-03T05:25:09.532Z,9.65
2023-02-03T05:27:43.310Z,9.82
2023-02-03T05:30:17.827Z,9.90
2023-02-03T05:32:54.288Z,8.77
2023-02-03T05:35:25.481Z,9.30
2023-02-03T05:37:56.131Z,9.30
2023-02-03T05:40:46.380Z,9.23
2023-02-03T05:43:20.719Z,9.07
2023-02-03T05:45:58.252Z,9.32
2023-02-03T05:48:32.572Z,9.15
2023-02-03T05:51:10.769Z,9.40
2023-02-03T05:53:46.580Z,9.02
2023-02-03T05:56:17.872Z,8.90
2023-02-03T05:58:48.655Z,8.90
2023-02-03T06:01:22.597Z,9.35
2023-02-03T06:03:58.002Z,9.52
2023-02-03T06:06:34.366Z,9.35
2023-02-03T06:09:07.760Z,9.25
2023-02-03T06:11:44.556Z,9.27
2023-02-03T06:14:20.390Z,9.52
2023-02-03T06:16:54.628Z,9.23
2023-02-03T06:19:27.634Z,9.70
2023-02-03T06:22:07.069Z,9.10
2023-02-03T06:24:42.347Z,8.82
2023-02-03T06:27:24.518Z,9.75
2023-02-03T06:29:57.768Z,8.98
2023-02-03T06:32:28.173Z,9.50
2023-02-03T06:35:01.256Z,9.38
2023-02-03T06:37:33.795Z,8.88
2023-02-03T06:40:07.962Z,9.95
2023-02-03T06:42:45.627Z,9.00
2023-02-03T06:45:18.534Z,9.23
2023-02-03T06:50:25.536Z,9.10
2023-02-03T06:53:04.253Z,9.68
2023-02-03T06:55:37.554Z,9.50
2023-02-03T06:58:18.066Z,9.02
2023-02-03T07:00:51.537Z,9.18
2023-02-03T07:03:27.603Z,9.35
2023-02-03T07:06:03.492Z,9.50
2023-02-03T07:08:35.995Z,9.20
2023-02-03T07:11:14.257Z,9.25
2023-02-03T07:13:49.411Z,9.07
2023-02-03T07:16:24.853Z,9.77
2023-02-03T07:18:58.801Z,9.10
2023-02-03T07:21:32.142Z,9.35
2023-02-03T07:24:13.910Z,9.57
2023-02-03T07:26:45.371Z,9.40
2023-02-03T07:29:23.973Z,9.18
2023-02-03T07:32:06.891Z,9.80
2023-02-03T07:34:39.854Z,9.90
2023-02-03T07:37:16.058Z,10.00
2023-02-03T07:40:02.022Z,10.10
2023-02-03T07:42:33.552Z,9.75
2023-02-03T07:45:13.152Z,10.60
2023-02-03T07:47:52.837Z,10.23
2023-02-03T07:50:27.204Z,9.95
2023-02-03T07:52:58.490Z,9.73
2023-02-03T07:55:41.535Z,9.93
2023-02-03T07:58:17.235Z,9.30
2023-02-03T08:01:00.024Z,9.68
2023-02-03T08:03:40.547Z,10.60
2023-02-03T08:06:14.488Z,10.15
2023-02-03T08:08:46.491Z,9.75
2023-02-03T08:11:29.220Z,10.40
2023-02-03T08:14:05.664Z,10.38
2023-02-03T08:16:41.886Z,9.93
2023-02-03T08:19:16.765Z,10.52
2023-02-03T08:21:52.739Z,10.63
2023-02-03T08:24:32.950Z,9.90
2023-02-03T08:27:15.988Z,10.73
2023-02-03T08:29:47.004Z,10.45
2023-02-03T08:32:26.093Z,10.93
2023-02-03T08:35:02.327Z,10.40
2023-02-03T08:37:40.434Z,10.55
2023-02-03T08:40:15.102Z,10.52
2023-02-03T08:42:53.754Z,11.68
2023-02-03T08:45:30.703Z,10.48
2023-02-03T08:48:10.628Z,10.75
2023-02-03T08:50:44.720Z,10.57
2023-02-03T08:53:24.931Z,10.63
2023-02-03T08:55:59.955Z,10.82
2023-02-03T08:58:37.974Z,10.15
2023-02-03T09:01:19.635Z,9.90
2023-02-03T09:03:52.844Z,10.70
2023-02-03T09:06:26.275Z,10.52
2023-02-03T09:09:06.607Z,10.40
2023-02-03T09:11:42.292Z,11.23
2023-02-03T09:14:19.530Z,10.20
2023-02-03T09:16:55.696Z,10.80
2023-02-03T09:19:35.535Z,10.38
2023-02-03T09:22:13.557Z,10.73
2023-02-03T09:24:55.609Z,10.68
2023-02-03T09:27:32.035Z,10.82
2023-02-03T09:30:05.828Z,10.75
2023-02-03T09:32:49.123Z,11.05
2023-02-03T09:35:23.915Z,11.00
2023-02-03T09:38:02.224Z,10.70
2023-02-03T09:40:47.083Z,10.55
2023-02-03T09:43:46.923Z,10.93
2023-02-03T09:46:44.664Z,11.20
2023-02-03T09:49:28.947Z,10.70
2023-02-03T09:52:25.277Z,11.13
2023-02-03T09:54:56.492Z,11.30
2023-02-03T09:57:35.400Z,11.23
2023-02-03T10:00:22.096Z,11.15
2023-02-03T10:03:24.878Z,10.98
2023-02-03T10:06:09.219Z,10.93
2023-02-03T10:09:10.757Z,11.00
2023-02-03T10:11:49.896Z,10.88
2023-02-03T10:14:32.851Z,10.70
2023-02-03T10:17:30.541Z,11.20
2023-02-03T10:20:17.465Z,11.65
2023-02-03T10:22:57.500Z,11.07
2023-02-03T10:25:46.108Z,11.13
2023-02-03T10:28:23.049Z,10.57
2023-02-03T10:31:03.116Z,10.18
2023-02-03T10:33:42.151Z,10.65
2023-02-03T10:36:15.210Z,10.98
2023-02-03T10:39:04.847Z,10.35
2023-02-03T10:41:43.175Z,11.20
2023-02-03T10:44:19.196Z,11.25
2023-02-03T10:46:57.689Z,10.77
2023-02-03T10:49:32.087Z,10.45
2023-02-03T10:52:12.673Z,10.65
2023-02-03T10:54:46.024Z,10.70
2023-02-03T10:57:23.545Z,11.00
2023-02-03T10:59:54.209Z,10.90
2023-02-03T11:02:29.013Z,11.23
2023-02-03T11:05:25.108Z,10.98
2023-02-03T11:07:58.813Z,10.98
2023-02-03T11:10:41.251Z,10.88
2023-02-03T11:13:26.106Z,10.77
2023-02-03T11:16:13.280Z,11.65
2023-02-03T11:19:12.024Z,11.32
2023-02-03T11:21:45.008Z,11.30
2023-02-03T11:24:30.385Z,10.90
2023-02-03T11:27:04.955Z,10.70
2023-02-03T11:29:50.763Z,11.65
2023-02-03T11:32:34.715Z,11.27
2023-02-03T11:35:26.352Z,10.90
2023-02-03T11:38:03.087Z,11.27
2023-02-03T11:40:42.069Z,11.48
2023-02-03T11:43:28.386Z,10.73
2023-02-03T11:46:12.245Z,10.45
2023-02-03T11:51:51.407Z,10.85
2023-02-03T11:54:46.924Z,11.73
2023-02-03T11:57:42.427Z,10.60
2023-02-03T12:00:31.660Z,11.07
2023-02-03T12:03:25.131Z,10.77
2023-02-03T12:06:11.324Z,11.30
2023-02-03T12:08:58.268Z,11.90
2023-02-03T12:11:51.249Z,10.80
2023-02-03T12:14:54.039Z,10.95
2023-02-03T12:17:49.847Z,10.98
2023-02-03T12:20:44.878Z,11.27
2023-02-03T12:23:42.237Z,10.77
2023-02-03T12:26:24.203Z,11.05
2023-02-03T12:29:04.165Z,11.63
2023-02-03T12:32:00.642Z,10.85
2023-02-03T12:34:47.583Z,11.90
2023-02-03T12:38:08.068Z,11.15
2023-02-03T12:40:49.508Z,11.70
2023-02-03T12:43:33.491Z,11.15
2023-02-03T12:46:20.238Z,11.93
2023-02-03T12:49:06.133Z,11.55
2023-02-03T12:51:42.611Z,12.15
2023-02-03T12:54:30.387Z,11.23
2023-02-03T12:57:29.797Z,11.73
2023-02-03T13:00:35.341Z,11.80
2023-02-03T13:03:27.627Z,11.10
2023-02-03T13:06:23.028Z,11.02
2023-02-03T13:09:14.553Z,11.63
2023-02-03T13:12:11.274Z,11.10
2023-02-03T13:14:42.730Z,11.10
2023-02-03T13:17:50.533Z,11.40
2023-02-03T13:20:36.293Z,11.55
2023-02-03T13:23:13.705Z,11.32
2023-02-03T13:26:15.800Z,11.10
2023-02-03T13:29:02.380Z,11.23
2023-02-03T13:32:09.122Z,11.50
2023-02-03T13:35:00.296Z,11.38
2023-02-03T13:38:08.257Z,10.95
2023-02-03T13:41:17.333Z,10.85
2023-02-03T13:43:58.158Z,11.25
2023-02-03T13:46:36.961Z,10.90
2023-02-03T13:49:09.159Z,10.45
2023-02-03T13:51:53.064Z,10.88
2023-02-03T13:54:43.226Z,10.18
2023-02-03T13:57:44.209Z,10.57
2023-02-03T14:00:56.554Z,10.75
2023-02-03T14:03:36.725Z,10.35
2023-02-03T14:06:33.957Z,10.45
2023-02-03T14:09:24.308Z,10.27
2023-02-03T14:12:22.150Z,10.75
2023-02-03T14:15:03.518Z,9.93
2023-02-03T14:17:47.273Z,10.38
2023-02-03T14:20:31.683Z,10.90
2023-02-03T14:23:15.842Z,10.32
2023-02-03T14:25:51.428Z,10.13
2023-02-03T14:28:29.805Z,10.18
2023-02-03T14:31:17.225Z,9.70
2023-02-03T14:33:55.373Z,10.40
2023-02-03T14:36:52.045Z,10.95
2023-02-03T14:39:55.473Z,9.73
2023-02-03T14:42:49.471Z,10.40
2023-02-03T14:45:50.472Z,9.70
2023-02-03T14:48:36.687Z,10.00
2023-02-03T14:51:42.408Z,10.00
2023-02-03T14:54:26.602Z,9.57
2023-02-03T14:57:16.299Z,10.48
2023-02-03T15:00:08.052Z,9.70
2023-02-03T15:03:01.874Z,10.00
2023-02-03T15:05:35.858Z,10.07
2023-02-03T15:08:24.485Z,9.75
2023-02-03T15:10:57.843Z,10.77
2023-02-03T15:13:29.040Z,10.18
2023-02-03T15:16:02.974Z,9.95
2023-02-03T15:18:33.467Z,10.48
2023-02-03T15:21:07.566Z,10.15
2023-02-03T15:23:48.396Z,9.90
2023-02-03T15:26:23.655Z,10.60
2023-02-03T15:29:08.899Z,9.70
2023-02-03T15:31:46.246Z,10.35
2023-02-03T15:34:35.510Z,10.55
2023-02-03T15:37:24.764Z,10.25
2023-02-03T15:40:16.355Z,10.18
2023-02-03T15:43:06.417Z,9.48
2023-02-03T15:45:59.646Z,9.98
2023-02-03T15:48:44.871Z,9.93
2023-02-03T15:51:20.052Z,10.60
2023-02-03T15:54:17.591Z,10.18
2023-02-03T15:57:03.020Z,10.70
2023-02-03T15:59:46.497Z,9.80
2023-02-03T16:02:27.415Z,10.02
2023-02-03T16:05:21.439Z,10.57
2023-02-03T16:08:18.648Z,10.13
2023-02-03T16:11:03.511Z,10.27
2023-02-03T16:13:35.947Z,10.15
2023-02-03T16:17:03.507Z,9.88
2023-02-03T16:19:40.362Z,9.70
2023-02-03T16:22:32.883Z,10.27
2023-02-03T16:25:23.785Z,9.80
2023-02-03T16:28:31.784Z,9.82
2023-02-03T16:31:35.887Z,10.30
2023-02-03T16:34:32.584Z,10.98
2023-02-03T16:41:16.305Z,10.13
2023-02-03T16:44:05.817Z,9.73
2023-02-03T16:46:58.836Z,9.98
2023-02-03T16:49:48.677Z,10.52
